createdAt,value
2023-01-06T00:01:22.314Z,8.60
2023-01-06T00:03:51.981Z,8.60
2023-01-06T00:06:23.035Z,8.50
2023-01-06T00:08:50.661Z,8.50
2023-01-06T00:11:19.380Z,8.60
2023-01-06T00:13:47.076Z,8.60
2023-01-06T00:16:18.392Z,8.70
2023-01-06T00:18:46.473Z,8.70
2023-01-06T00:21:15.729Z,8.70
2023-01-06T00:23:43.544Z,8.50
2023-01-06T00:26:11.511Z,8.60
2023-01-06T00:28:39.193Z,8.70
2023-01-06T00:31:15.440Z,8.60
2023-01-06T00:33:43.467Z,8.50
2023-01-06T00:36:13.036Z,8.70
2023-01-06T00:38:43.546Z,8.60
2023-01-06T00:41:31.968Z,8.60
2023-01-06T00:44:00.536Z,8.50
2023-01-06T00:46:34.193Z,8.60
2023-01-06T00:49:05.560Z,8.70
2023-01-06T00:51:39.151Z,8.70
2023-01-06T00:54:12.585Z,8.70
2023-01-06T00:56:44.299Z,8.60
2023-01-06T00:59:17.242Z,8.50
2023-01-06T01:01:46.229Z,8.70
2023-01-06T01:04:14.834Z,8.70
2023-01-06T01:06:44.007Z,8.80
2023-01-06T01:09:16.061Z,8.50
2023-01-06T01:12:02.721Z,8.70
2023-01-06T01:14:30.770Z,8.80
2023-01-06T01:16:58.673Z,8.70
2023-01-06T01:19:27.344Z,8.50
2023-01-06T01:21:54.965Z,8.40
2023-01-06T01:24:23.327Z,8.50
2023-01-06T01:26:51.117Z,8.70
2023-01-06T01:29:20.314Z,8.80
2023-01-06T01:31:50.212Z,8.50
2023-01-06T01:34:19.553Z,8.60
2023-01-06T01:36:49.116Z,8.80
2023-01-06T01:39:19.404Z,8.60
2023-01-06T01:41:47.734Z,8.60
2023-01-06T01:44:53.855Z,8.80
2023-01-06T01:47:30.565Z,8.70
2023-01-06T01:50:13.211Z,8.70
2023-01-06T01:52:45.660Z,8.60
2023-01-06T01:55:15.010Z,8.80
2023-01-06T01:57:57.987Z,8.90
2023-01-06T02:00:26.756Z,8.70
2023-01-06T02:02:56.942Z,8.80
2023-01-06T02:05:27.540Z,8.90
2023-01-06T02:08:02.492Z,8.80
2023-01-06T02:10:30.137Z,8.70
2023-01-06T02:13:00.671Z,8.80
2023-01-06T02:15:31.618Z,8.80
2023-01-06T02:18:24.304Z,8.90
2023-01-06T02:21:20.656Z,8.60
2023-01-06T02:24:19.044Z,8.60
2023-01-06T02:27:06.289Z,8.60
2023-01-06T02:30:01.360Z,8.70
2023-01-06T02:32:44.006Z,8.60
2023-01-06T02:35:45.119Z,8.70
2023-01-06T02:38:42.690Z,8.70
2023-01-06T02:41:32.107Z,8.60
2023-01-06T02:44:22.891Z,8.70
2023-01-06T02:46:59.223Z,8.60
2023-01-06T02:49:43.918Z,8.80
2023-01-06T02:52:23.874Z,8.90
2023-01-06T02:55:07.716Z,8.80
2023-01-06T02:58:23.696Z,8.90
2023-01-06T03:01:00.662Z,8.90
2023-01-06T03:03:33.825Z,8.70
2023-01-06T03:06:10.931Z,8.80
2023-01-06T03:08:40.158Z,8.80
2023-01-06T03:11:08.570Z,8.90
2023-01-06T03:13:51.683Z,8.80
2023-01-06T03:16:20.602Z,8.90
2023-01-06T03:18:54.307Z,8.80
2023-01-06T03:21:36.337Z,8.70
2023-01-06T03:24:07.738Z,8.80
2023-01-06T03:26:36.614Z,8.80
2023-01-06T03:29:08.044Z,8.90
2023-01-06T03:31:40.181Z,8.90
2023-01-06T03:34:19.691Z,8.90
2023-01-06T03:37:12.922Z,8.90
2023-01-06T03:40:02.277Z,8.90
2023-01-06T03:42:57.641Z,8.90
2023-01-06T03:45:42.377Z,9.00
2023-01-06T03:48:34.680Z,8.80
2023-01-06T03:51:22.442Z,8.90
2023-01-06T03:54:09.646Z,8.90
2023-01-06T03:56:52.738Z,8.80
2023-01-06T03:59:26.179Z,8.80
2023-01-06T04:01:54.546Z,8.70
2023-01-06T04:04:22.670Z,8.70
2023-01-06T04:06:50.261Z,8.60
2023-01-06T04:09:18.068Z,8.70
2023-01-06T04:12:04.808Z,8.80
2023-01-06T04:14:36.372Z,8.80
2023-01-06T04:17:04.172Z,8.70
2023-01-06T04:19:31.829Z,8.50
2023-01-06T04:21:59.489Z,8.50
2023-01-06T04:24:30.028Z,8.70
2023-01-06T04:26:57.949Z,8.70
2023-01-06T04:29:25.554Z,8.70
2023-01-06T04:31:55.569Z,8.60
2023-01-06T04:34:23.185Z,8.80
2023-01-06T04:36:50.783Z,8.70
2023-01-06T04:39:18.946Z,8.60
2023-01-06T04:41:46.582Z,8.40
2023-01-06T04:44:14.180Z,8.70
2023-01-06T04:46:42.008Z,8.70
2023-01-06T04:49:10.018Z,8.50
2023-01-06T04:51:37.630Z,8.50
2023-01-06T04:54:05.549Z,8.50
2023-01-06T04:56:33.351Z,8.50
2023-01-06T04:59:01.098Z,8.50
2023-01-06T05:01:29.146Z,8.40
2023-01-06T05:03:56.976Z,8.60
2023-01-06T05:06:25.207Z,8.70
2023-01-06T05:08:52.789Z,8.70
2023-01-06T05:11:23.436Z,8.50
2023-01-06T05:13:51.835Z,8.60
2023-01-06T05:16:25.720Z,8.70
2023-01-06T05:18:54.790Z,8.60
2023-01-06T05:21:24.969Z,8.40
2023-01-06T05:23:52.996Z,8.50
2023-01-06T05:26:26.446Z,8.50
2023-01-06T05:28:54.396Z,8.50
2023-01-06T05:31:21.968Z,8.40
2023-01-06T05:33:49.638Z,8.40
2023-01-06T05:36:18.445Z,8.30
2023-01-06T05:38:52.336Z,8.30
2023-01-06T05:41:19.967Z,8.30
2023-01-06T05:43:48.880Z,8.30
2023-01-06T05:46:16.472Z,8.40
2023-01-06T05:48:44.123Z,8.40
2023-01-06T05:51:16.663Z,8.20
2023-01-06T05:53:46.365Z,8.20
2023-01-06T05:56:17.405Z,8.20
2023-01-06T05:58:46.865Z,8.00
2023-01-06T06:01:26.294Z,8.10
2023-01-06T06:03:54.939Z,8.00
2023-01-06T06:06:25.600Z,8.00
2023-01-06T06:08:56.122Z,8.20
2023-01-06T06:11:23.808Z,8.20
2023-01-06T06:13:53.914Z,8.10
2023-01-06T06:16:24.753Z,8.10
2023-01-06T06:18:54.568Z,8.10
2023-01-06T06:21:26.698Z,8.10
2023-01-06T06:23:56.339Z,8.10
2023-01-06T06:26:24.259Z,8.30
2023-01-06T06:28:52.092Z,8.20
2023-01-06T06:31:23.159Z,8.20
2023-01-06T06:33:59.267Z,8.00
2023-01-06T06:36:27.395Z,7.90
2023-01-06T06:38:55.740Z,8.10
2023-01-06T06:41:24.915Z,8.10
2023-01-06T06:43:56.210Z,8.20
2023-01-06T06:46:24.038Z,8.20
2023-01-06T06:48:52.124Z,8.30
2023-01-06T06:51:23.447Z,8.40
2023-01-06T06:53:51.652Z,8.40
2023-01-06T06:56:20.545Z,8.40
2023-01-06T06:58:48.797Z,8.50
2023-01-06T07:01:21.263Z,8.40
2023-01-06T07:03:49.715Z,8.50
2023-01-06T07:06:21.101Z,8.50
2023-01-06T07:08:49.549Z,8.80
2023-01-06T07:11:17.284Z,8.80
2023-01-06T07:13:47.693Z,8.70
2023-01-06T07:16:15.410Z,8.60
2023-01-06T07:18:43.040Z,8.60
2023-01-06T07:21:14.651Z,8.70
2023-01-06T07:23:42.224Z,8.60
2023-01-06T07:26:10.790Z,8.80
2023-01-06T07:28:38.581Z,8.70
2023-01-06T07:31:06.370Z,8.60
2023-01-06T07:33:34.133Z,8.70
2023-01-06T07:36:01.683Z,8.80
2023-01-06T07:38:32.005Z,8.80
2023-01-06T07:41:00.896Z,8.70
2023-01-06T07:43:29.001Z,8.70
2023-01-06T07:45:57.262Z,8.60
2023-01-06T07:48:24.904Z,8.60
2023-01-06T07:50:52.475Z,8.90
2023-01-06T07:53:20.190Z,8.90
2023-01-06T07:55:52.931Z,8.80
2023-01-06T07:58:20.876Z,8.70
2023-01-06T08:00:51.813Z,8.60
2023-01-06T08:03:19.779Z,8.70
2023-01-06T08:05:47.497Z,8.80
2023-01-06T08:08:15.310Z,8.80
2023-01-06T08:10:43.611Z,8.70
2023-01-06T08:13:11.772Z,8.90
2023-01-06T08:15:39.785Z,9.00
2023-01-06T08:18:08.116Z,8.90
2023-01-06T08:20:36.176Z,9.00
2023-01-06T08:23:03.753Z,9.00
2023-01-06T08:25:31.268Z,9.00
2023-01-06T08:28:00.532Z,9.10
2023-01-06T08:30:28.536Z,9.10
2023-01-06T08:33:00.552Z,9.20
2023-01-06T08:35:28.374Z,9.10
2023-01-06T08:37:56.101Z,9.20
2023-01-06T08:40:24.054Z,9.10
2023-01-06T08:42:51.629Z,9.20
2023-01-06T08:45:19.313Z,9.30
2023-01-06T08:47:46.908Z,9.10
2023-01-06T08:50:14.906Z,9.10
2023-01-06T08:52:42.633Z,9.20
2023-01-06T08:55:10.168Z,9.20
2023-01-06T08:57:37.704Z,9.20
2023-01-06T09:00:07.121Z,9.30
2023-01-06T09:02:34.632Z,9.60
2023-01-06T09:05:02.703Z,9.70
2023-01-06T09:07:30.748Z,9.70
2023-01-06T09:09:58.500Z,9.70
2023-01-06T09:12:26.925Z,9.70
2023-01-06T09:14:57.658Z,9.70
2023-01-06T09:17:25.801Z,9.80
2023-01-06T09:19:53.887Z,9.70
2023-01-06T09:22:24.453Z,9.70
2023-01-06T09:24:56.470Z,9.70
2023-01-06T09:27:27.225Z,9.80
2023-01-06T09:29:55.112Z,9.70
2023-01-06T09:32:27.163Z,9.80
2023-01-06T09:34:56.455Z,9.80
2023-01-06T09:37:24.200Z,9.80
2023-01-06T09:39:54.618Z,9.90
2023-01-06T09:42:37.163Z,9.90
2023-01-06T09:45:16.485Z,10.00
2023-01-06T09:47:52.113Z,10.10
2023-01-06T09:50:40.078Z,10.20
2023-01-06T09:53:19.555Z,10.20
2023-01-06T09:55:50.427Z,10.20
2023-01-06T09:58:27.123Z,10.30
2023-01-06T10:00:56.721Z,10.30
2023-01-06T10:03:26.737Z,10.40
2023-01-06T10:06:22.356Z,10.50
2023-01-06T10:09:08.757Z,10.60
2023-01-06T10:12:07.058Z,10.80
2023-01-06T10:15:06.050Z,10.70
2023-01-06T10:17:55.704Z,10.70
2023-01-06T10:20:49.354Z,10.70
2023-01-06T10:23:29.841Z,10.80
2023-01-06T10:26:13.527Z,10.70
2023-01-06T10:28:48.509Z,10.70
2023-01-06T10:31:19.381Z,10.70
2023-01-06T10:33:51.224Z,10.70
2023-01-06T10:36:29.133Z,10.80
2023-01-06T10:38:59.225Z,10.90
2023-01-06T10:41:53.625Z,11.00
2023-01-06T10:44:21.377Z,11.10
2023-01-06T10:46:50.365Z,11.10
2023-01-06T10:49:19.409Z,11.20
2023-01-06T10:51:58.041Z,11.20
2023-01-06T10:54:29.774Z,11.20
2023-01-06T10:57:03.966Z,11.20
2023-01-06T10:59:32.749Z,11.20
2023-01-06T11:02:00.582Z,11.20
2023-01-06T11:04:29.215Z,11.20
2023-01-06T11:07:04.090Z,11.20
2023-01-06T11:09:45.323Z,11.10
2023-01-06T11:12:29.682Z,11.30
2023-01-06T11:15:08.396Z,11.30
2023-01-06T11:17:37.189Z,11.20
2023-01-06T11:20:16.992Z,11.30
2023-01-06T11:22:45.193Z,11.30
2023-01-06T11:25:24.616Z,11.30
2023-01-06T11:28:17.697Z,11.30
2023-01-06T11:31:08.596Z,11.20
2023-01-06T11:33:38.593Z,11.30
2023-01-06T11:36:14.708Z,11.30
2023-01-06T11:39:00.282Z,11.40
2023-01-06T11:41:48.306Z,11.20
2023-01-06T11:44:22.404Z,11.20
2023-01-06T11:47:03.016Z,11.30
2023-01-06T11:49:38.483Z,11.50
2023-01-06T11:52:19.552Z,11.50
2023-01-06T11:55:02.742Z,11.50
2023-01-06T11:58:05.353Z,11.50
2023-01-06T12:01:00.928Z,11.50
2023-01-06T12:03:41.877Z,11.40
2023-01-06T12:06:23.694Z,11.40
2023-01-06T12:09:36.962Z,11.40
2023-01-06T12:12:07.999Z,11.30
2023-01-06T12:14:38.843Z,11.30
2023-01-06T12:17:21.476Z,11.40
2023-01-06T12:20:13.589Z,11.30
2023-01-06T12:22:49.502Z,11.20
2023-01-06T12:25:26.387Z,11.40
2023-01-06T12:28:17.718Z,11.50
2023-01-06T12:31:04.361Z,11.60
2023-01-06T12:34:03.775Z,11.50
2023-01-06T12:36:56.518Z,11.50
2023-01-06T12:40:14.387Z,11.40
2023-01-06T12:42:50.993Z,11.40
2023-01-06T12:45:41.091Z,11.40
2023-01-06T12:48:31.625Z,11.30
2023-01-06T12:51:27.815Z,11.40
2023-01-06T12:54:22.777Z,11.50
2023-01-06T12:57:09.113Z,11.50
2023-01-06T12:59:45.572Z,11.20
2023-01-06T13:02:13.692Z,11.30
2023-01-06T13:05:04.342Z,11.30
2023-01-06T13:07:38.181Z,11.30
2023-01-06T13:10:20.353Z,11.20
2023-01-06T13:13:05.733Z,11.30
2023-01-06T13:15:38.745Z,11.30
2023-01-06T13:18:06.897Z,11.20
2023-01-06T13:20:49.543Z,11.20
2023-01-06T13:23:49.876Z,11.10
2023-01-06T13:26:18.469Z,11.00
2023-01-06T13:29:01.900Z,11.00
2023-01-06T13:31:41.883Z,11.10
2023-01-06T13:34:40.784Z,11.20
2023-01-06T13:37:26.287Z,11.20
2023-01-06T13:40:14.222Z,11.10
2023-01-06T13:42:46.289Z,11.30
2023-01-06T13:45:26.436Z,11.30
2023-01-06T13:47:55.371Z,11.30
2023-01-06T13:50:37.882Z,11.30
2023-01-06T13:53:07.441Z,11.10
2023-01-06T13:55:39.131Z,11.10
2023-01-06T13:58:27.793Z,11.20
2023-01-06T14:01:33.064Z,11.10
2023-01-06T14:04:33.082Z,11.10
2023-01-06T14:07:01.650Z,11.10
2023-01-06T14:09:32.225Z,11.20
2023-01-06T14:12:11.116Z,11.20
2023-01-06T14:14:39.235Z,11.20
2023-01-06T14:17:07.036Z,11.00
2023-01-06T14:19:39.770Z,10.90
2023-01-06T14:22:29.678Z,10.80
2023-01-06T14:25:03.868Z,10.80
2023-01-06T14:27:49.548Z,10.80
2023-01-06T14:30:49.380Z,10.90
2023-01-06T14:33:30.857Z,10.90
2023-01-06T14:36:12.966Z,10.80
2023-01-06T14:38:45.565Z,10.80
2023-01-06T14:41:48.768Z,10.80
2023-01-06T14:44:24.077Z,10.70
2023-01-06T14:47:04.538Z,10.70
2023-01-06T14:50:01.881Z,10.80
2023-01-06T14:52:34.711Z,10.80
2023-01-06T14:55:12.197Z,10.70
2023-01-06T14:57:42.485Z,10.70
2023-01-06T15:00:25.007Z,10.70
2023-01-06T15:02:55.865Z,10.80
2023-01-06T15:05:37.283Z,10.70
2023-01-06T15:08:09.551Z,10.80
2023-01-06T15:10:43.296Z,10.80
2023-01-06T15:13:29.581Z,10.80
2023-01-06T15:16:22.336Z,10.80
2023-01-06T15:18:53.538Z,10.70
2023-01-06T15:21:25.095Z,10.60
2023-01-06T15:23:55.537Z,10.50
2023-01-06T15:26:28.816Z,10.60
2023-01-06T15:29:04.153Z,10.40
2023-01-06T15:31:38.252Z,10.40
2023-01-06T15:34:21.603Z,10.60
2023-01-06T15:36:52.300Z,10.60
2023-01-06T15:39:29.810Z,10.50
2023-01-06T15:42:00.264Z,10.50
2023-01-06T15:44:33.935Z,10.60
2023-01-06T15:47:11.257Z,10.30
2023-01-06T15:49:51.634Z,10.30
2023-01-06T15:52:46.067Z,10.20
2023-01-06T15:55:33.284Z,10.30
2023-01-06T15:58:23.503Z,10.30
2023-01-06T16:00:58.812Z,10.40
2023-01-06T16:03:30.824Z,10.40
2023-01-06T16:06:13.311Z,10.50
2023-01-06T16:08:43.653Z,10.40
2023-01-06T16:11:17.619Z,10.30
2023-01-06T16:14:07.193Z,10.20
2023-01-06T16:16:42.955Z,10.20
2023-01-06T16:19:22.805Z,10.00
2023-01-06T16:21:55.622Z,10.20
2023-01-06T16:24:29.164Z,10.10
2023-01-06T16:27:04.241Z,10.20
2023-01-06T16:29:38.227Z,10.00
2023-01-06T16:32:27.432Z,9.90
2023-01-06T16:35:05.292Z,10.00
2023-01-06T16:37:34.391Z,10.30
2023-01-06T16:40:02.051Z,10.20
2023-01-06T16:42:39.855Z,10.10
2023-01-06T16:45:43.443Z,10.00
2023-01-06T16:48:16.098Z,9.90
2023-01-06T16:50:53.467Z,9.90
2023-01-06T16:53:24.813Z,9.90
2023-01-06T16:55:55.134Z,9.90
2023-01-06T16:58:25.554Z,9.80
2023-01-06T17:00:54.621Z,9.70
2023-01-06T17:03:30.954Z,9.90
2023-01-06T17:06:00.934Z,10.00
2023-01-06T17:08:34.894Z,9.90
2023-01-06T17:11:18.050Z,9.80
2023-01-06T17:13:53.526Z,9.90
2023-01-06T17:16:27.848Z,9.80
2023-01-06T17:19:04.745Z,9.90
2023-01-06T17:21:37.933Z,9.80
2023-01-06T17:24:08.552Z,9.90
2023-01-06T17:26:39.863Z,9.90
2023-01-06T17:29:18.589Z,9.90
2023-01-06T17:31:48.365Z,9.90
2023-01-06T17:34:24.578Z,9.90
2023-01-06T17:36:55.814Z,9.80
2023-01-06T17:39:33.839Z,9.80
2023-01-06T17:42:07.951Z,9.80
2023-01-06T17:44:47.341Z,10.00
2023-01-06T17:47:15.829Z,10.00
2023-01-06T17:50:01.344Z,10.00
2023-01-06T17:52:35.658Z,10.00
2023-01-06T17:55:44.827Z,10.00
2023-01-06T17:58:18.384Z,10.20
2023-01-06T18:00:46.962Z,10.10
2023-01-06T18:03:17.464Z,10.20
2023-01-06T18:05:45.360Z,10.20
2023-01-06T18:08:15.363Z,10.00
2023-01-06T18:10:51.949Z,10.10
2023-01-06T18:13:23.813Z,10.00
2023-01-06T18:16:05.077Z,10.00
2023-01-06T18:18:42.874Z,10.10
2023-01-06T18:21:17.069Z,10.10
2023-01-06T18:23:50.914Z,10.00
2023-01-06T18:26:46.572Z,9.90
2023-01-06T18:29:18.692Z,9.80
2023-01-06T18:31:48.908Z,10.00
2023-01-06T18:34:35.734Z,9.90
2023-01-06T18:37:03.947Z,9.80
2023-01-06T18:39:45.791Z,9.80
2023-01-06T18:42:30.627Z,9.90
2023-01-06T18:45:02.907Z,9.90
2023-01-06T18:47:31.590Z,9.90
2023-01-06T18:50:24.342Z,10.10
2023-01-06T18:52:59.558Z,10.00
2023-01-06T18:55:36.706Z,9.90
2023-01-06T18:58:38.968Z,9.80
2023-01-06T19:01:17.025Z,9.70
2023-01-06T19:04:14.691Z,9.70
2023-01-06T19:06:52.297Z,9.60
2023-01-06T19:09:35.306Z,9.60
2023-01-06T19:12:18.244Z,9.60
2023-01-06T19:14:54.040Z,9.70
2023-01-06T19:17:41.251Z,9.90
2023-01-06T19:20:25.907Z,9.90
2023-01-06T19:22:55.603Z,10.00
2023-01-06T19:25:53.301Z,10.10
2023-01-06T19:28:30.690Z,10.00
2023-01-06T19:31:07.807Z,9.80
2023-01-06T19:33:44.664Z,9.70
2023-01-06T19:36:44.221Z,9.70
2023-01-06T19:39:32.714Z,9.70
2023-01-06T19:42:44.827Z,9.60
2023-01-06T19:45:35.133Z,9.60
2023-01-06T19:48:14.805Z,9.60
2023-01-06T19:50:42.422Z,9.70
2023-01-06T19:53:36.444Z,9.70
2023-01-06T19:56:17.148Z,9.70
2023-01-06T19:58:51.856Z,9.90
2023-01-06T20:01:19.829Z,10.00
2023-01-06T20:03:48.994Z,9.90
2023-01-06T20:06:19.481Z,9.80
2023-01-06T20:08:53.556Z,9.80
2023-01-06T20:11:23.081Z,9.70
2023-01-06T20:13:50.926Z,9.70
2023-01-06T20:16:19.020Z,9.70
2023-01-06T20:18:46.768Z,9.60
2023-01-06T20:21:17.262Z,9.60
2023-01-06T20:23:46.508Z,9.60
2023-01-06T20:26:14.158Z,9.80
2023-01-06T20:28:41.789Z,9.80
2023-01-06T20:31:09.947Z,9.80
2023-01-06T20:34:01.559Z,9.70
2023-01-06T20:36:49.686Z,9.70
2023-01-06T20:39:21.532Z,9.80
2023-01-06T20:41:49.804Z,9.80
2023-01-06T20:44:17.662Z,9.90
2023-01-06T20:46:45.327Z,9.70
2023-01-06T20:49:13.397Z,9.70
2023-01-06T20:51:41.156Z,9.60
2023-01-06T20:54:15.476Z,9.50
2023-01-06T20:56:43.591Z,9.50
2023-01-06T20:59:15.668Z,9.70
2023-01-06T21:01:44.232Z,9.80
2023-01-06T21:04:12.128Z,9.80
2023-01-06T21:06:39.994Z,9.60
2023-01-06T21:09:10.070Z,9.60
2023-01-06T21:11:38.496Z,9.60
2023-01-06T21:14:06.304Z,9.80
2023-01-06T21:16:34.192Z,9.70
2023-01-06T21:19:02.438Z,9.70
2023-01-06T21:21:32.855Z,9.70
2023-01-06T21:24:00.672Z,9.70
2023-01-06T21:26:28.699Z,9.70
2023-01-06T21:28:57.623Z,9.80
2023-01-06T21:31:25.249Z,9.80
2023-01-06T21:33:58.608Z,9.70
2023-01-06T21:36:26.217Z,9.60
2023-01-06T21:38:55.171Z,9.50
2023-01-06T21:41:42.530Z,9.50
2023-01-06T21:44:10.084Z,9.50
2023-01-06T21:46:40.743Z,9.60
2023-01-06T21:49:10.146Z,9.60
2023-01-06T21:51:38.942Z,9.50
2023-01-06T21:54:06.700Z,9.50
2023-01-06T21:56:35.709Z,9.60
2023-01-06T21:59:04.248Z,9.50
2023-01-06T22:01:31.963Z,9.50
2023-01-06T22:03:59.774Z,9.70
2023-01-06T22:06:29.790Z,9.70
2023-01-06T22:09:02.220Z,9.80
2023-01-06T22:11:32.057Z,9.60
2023-01-06T22:14:00.520Z,9.50
2023-01-06T22:16:28.475Z,9.50
2023-01-06T22:18:57.311Z,9.50
2023-01-06T22:21:32.252Z,9.40
2023-01-06T22:24:08.482Z,9.50
2023-01-06T22:26:39.901Z,9.60
2023-01-06T22:29:10.789Z,9.50
2023-01-06T22:31:38.303Z,9.70
2023-01-06T22:34:07.380Z,9.70
2023-01-06T22:36:35.229Z,9.70
2023-01-06T22:39:03.071Z,9.70
2023-01-06T22:41:30.580Z,9.60
2023-01-06T22:43:58.010Z,9.50
2023-01-06T22:46:27.384Z,9.50
2023-01-06T22:48:54.985Z,9.60
2023-01-06T22:51:22.456Z,9.60
2023-01-06T22:53:50.154Z,9.60
2023-01-06T22:56:17.678Z,9.50
2023-01-06T22:58:51.377Z,9.60
2023-01-06T23:01:19.077Z,9.60
2023-01-06T23:03:46.848Z,9.60
2023-01-06T23:06:20.187Z,9.60
2023-01-06T23:09:00.046Z,9.80
2023-01-06T23:11:28.968Z,9.60
2023-01-06T23:13:57.990Z,9.70
2023-01-06T23:16:36.100Z,9.70
2023-01-06T23:19:12.024Z,9.60
2023-01-06T23:21:40.868Z,9.50
2023-01-06T23:24:09.660Z,9.60
2023-01-06T23:26:45.161Z,9.50
2023-01-06T23:29:13.627Z,9.60
2023-01-06T23:31:43.163Z,9.50
2023-01-06T23:34:15.482Z,9.40
2023-01-06T23:36:43.630Z,9.40
2023-01-06T23:39:14.846Z,9.40
2023-01-06T23:41:42.974Z,9.50
2023-01-06T23:44:17.717Z,9.40
2023-01-06T23:46:45.967Z,9.50
2023-01-06T23:49:21.948Z,9.50
2023-01-06T23:51:49.786Z,9.40
2023-01-06T23:54:17.235Z,9.40
2023-01-06T23:56:44.709Z,9.40
2023-01-06T23:59:13.132Z,9.30
